Time;durP1;ratioP1;P1;durP2;ratioP2;P2;SDS_P1;SDS_P2;PMS_P1;PMS_P2;Temp;Humidity;BMP_temperature;BMP_pressure;BME280_temperature;BME280_humidity;BME280_pressure;Samples;Min_cycle;Max_cycle;Signal;HPM_P1;HPM_P2
2022/12/13 00:00:43;;;;;;;19.57;10.60;;;;;;;;;;5219148;28;20029;-72
2022/12/13 00:03:14;;;;;;;20.17;11.17;;;;;;;;;;5218994;28;20112;-71
2022/12/13 00:05:45;;;;;;;18.63;11.00;;;;;;;;;;5219067;28;20018;-70
2022/12/13 00:08:16;;;;;;;18.37;10.67;;;;;;;;;;5219615;28;20022;-71
2022/12/13 00:10:57;;;;;;;19.70;11.23;;;;;;;;;;5218220;28;20030;-71
2022/12/13 00:13:28;;;;;;;22.67;10.87;;;;;;;;;;5219384;28;20026;-71
2022/12/13 00:16:01;;;;;;;19.07;10.80;;;;;;;;;;5218559;28;20033;-71
2022/12/13 00:18:32;;;;;;;22.20;11.53;;;;;;;;;;5219330;28;20025;-71
2022/12/13 00:21:05;;;;;;;18.23;10.50;;;;;;;;;;5219210;28;20026;-71
2022/12/13 00:23:36;;;;;;;18.30;10.73;;;;;;;;;;5218618;28;20025;-71
2022/12/13 00:26:10;;;;;;;17.40;10.47;;;;;;;;;;5219210;28;20022;-71
2022/12/13 00:28:41;;;;;;;21.43;11.77;;;;;;;;;;5218902;28;20381;-72
2022/12/13 00:31:12;;;;;;;21.07;12.33;;;;;;;;;;5218770;28;20037;-71
2022/12/13 00:33:43;;;;;;;20.00;11.17;;;;;;;;;;5218642;28;20041;-72
2022/12/13 00:36:15;;;;;;;19.80;11.37;;;;;;;;;;5219262;28;20492;-72
2022/12/13 00:38:59;;;;;;;18.77;10.87;;;;;;;;;;5217685;28;20432;-72
2022/12/13 00:41:31;;;;;;;18.17;10.47;;;;;;;;;;5219077;28;20108;-72
2022/12/13 00:44:03;;;;;;;18.40;11.77;;;;;;;;;;5218223;28;20072;-72
2022/12/13 00:46:34;;;;;;;18.13;10.97;;;;;;;;;;5219200;28;20148;-71
2022/12/13 00:49:05;;;;;;;23.87;11.53;;;;;;;;;;5219119;28;20037;-72
2022/12/13 00:51:36;;;;;;;18.60;11.23;;;;;;;;;;5218181;28;20097;-72
2022/12/13 00:54:08;;;;;;;18.70;10.97;;;;;;;;;;5222031;28;20173;-72
2022/12/13 00:56:40;;;;;;;20.27;11.17;;;;;;;;;;5222248;28;20628;-72
2022/12/13 00:59:12;;;;;;;19.97;11.27;;;;;;;;;;5222358;28;20025;-72
2022/12/13 01:01:43;;;;;;;19.57;11.90;;;;;;;;;;5222373;28;20045;-71
2022/12/13 01:04:15;;;;;;;21.63;10.97;;;;;;;;;;5205231;28;20050;-72
2022/12/13 01:06:48;;;;;;;22.40;12.17;;;;;;;;;;5221334;28;20026;-72
2022/12/13 01:09:21;;;;;;;21.43;11.50;;;;;;;;;;5222978;28;20071;-72
2022/12/13 01:11:55;;;;;;;23.00;11.63;;;;;;;;;;5222428;28;20053;-71
2022/12/13 01:14:27;;;;;;;18.50;10.53;;;;;;;;;;5222048;28;20424;-71
2022/12/13 01:16:58;;;;;;;19.93;12.10;;;;;;;;;;5222283;28;20025;-71
2022/12/13 01:19:29;;;;;;;18.90;11.33;;;;;;;;;;5221319;28;20022;-71
2022/12/13 01:22:02;;;;;;;18.33;11.13;;;;;;;;;;5222325;28;20010;-71
2022/12/13 01:24:33;;;;;;;19.93;12.27;;;;;;;;;;5222275;28;20473;-71
2022/12/13 01:27:04;;;;;;;18.90;11.87;;;;;;;;;;5221263;28;20028;-71
2022/12/13 01:29:36;;;;;;;20.17;12.40;;;;;;;;;;5221845;28;20033;-71
2022/12/13 01:32:07;;;;;;;18.80;11.40;;;;;;;;;;5222158;28;20572;-71
2022/12/13 01:34:38;;;;;;;21.30;12.10;;;;;;;;;;5221166;28;20048;-71
2022/12/13 01:37:09;;;;;;;20.27;12.40;;;;;;;;;;5222157;28;20042;-72
2022/12/13 01:39:41;;;;;;;20.93;11.90;;;;;;;;;;5204056;28;20028;-71
2022/12/13 01:42:13;;;;;;;20.17;12.03;;;;;;;;;;5221313;28;20033;-71
2022/12/13 01:45:03;;;;;;;19.87;11.77;;;;;;;;;;5221412;28;20017;-71
2022/12/13 01:47:37;;;;;;;16.43;10.10;;;;;;;;;;5221042;28;20113;-70
2022/12/13 01:50:10;;;;;;;17.50;10.90;;;;;;;;;;5221589;28;20076;-70
2022/12/13 01:52:42;;;;;;;18.57;10.60;;;;;;;;;;5221213;28;20040;-70
2022/12/13 01:55:15;;;;;;;17.00;11.03;;;;;;;;;;5220810;28;20116;-70
2022/12/13 01:57:47;;;;;;;19.73;10.30;;;;;;;;;;5221090;28;20045;-70
2022/12/13 02:00:18;;;;;;;21.87;11.50;;;;;;;;;;5221841;28;20424;-71
2022/12/13 02:02:49;;;;;;;20.77;11.67;;;;;;;;;;5220355;28;20018;-70
2022/12/13 02:05:27;;;;;;;21.97;12.00;;;;;;;;;;5220773;28;20053;-71
2022/12/13 02:07:59;;;;;;;19.30;11.20;;;;;;;;;;5221220;28;20030;-71
2022/12/13 02:10:31;;;;;;;17.53;11.23;;;;;;;;;;5220561;28;20022;-71
2022/12/13 02:13:02;;;;;;;20.60;12.60;;;;;;;;;;5221109;28;20022;-72
2022/12/13 02:15:46;;;;;;;20.50;11.70;;;;;;;;;;5220330;28;20041;-71
2022/12/13 02:18:29;;;;;;;19.17;11.50;;;;;;;;;;5221658;28;20069;-71
2022/12/13 02:21:03;;;;;;;20.63;11.87;;;;;;;;;;5221099;28;20021;-71
2022/12/13 02:23:53;;;;;;;20.17;12.03;;;;;;;;;;5220352;28;20063;-70
2022/12/13 02:26:27;;;;;;;19.47;12.07;;;;;;;;;;5221115;28;20101;-71
2022/12/13 02:29:09;;;;;;;19.73;11.80;;;;;;;;;;5220956;28;20056;-71
2022/12/13 02:31:58;;;;;;;21.77;12.20;;;;;;;;;;5219840;28;20105;-72
2022/12/13 02:34:43;;;;;;;20.97;12.70;;;;;;;;;;5220577;28;20068;-71
2022/12/13 02:37:14;;;;;;;22.93;12.70;;;;;;;;;;5220167;28;20069;-71
2022/12/13 02:40:06;;;;;;;20.80;11.60;;;;;;;;;;5220550;28;20084;-72
2022/12/13 02:42:41;;;;;;;24.17;12.13;;;;;;;;;;5219727;28;20033;-72
2022/12/13 02:45:14;;;;;;;21.83;13.10;;;;;;;;;;5220079;28;20030;-71
2022/12/13 02:47:46;;;;;;;19.37;11.23;;;;;;;;;;5220166;28;20063;-72
2022/12/13 02:50:19;;;;;;;20.77;12.97;;;;;;;;;;5220953;28;20014;-71
2022/12/13 02:52:51;;;;;;;19.83;11.90;;;;;;;;;;5219294;28;20021;-71
2022/12/13 02:55:22;;;;;;;22.97;13.10;;;;;;;;;;5220241;28;20034;-72
2022/12/13 02:57:54;;;;;;;22.50;12.47;;;;;;;;;;5219683;28;20022;-71
2022/12/13 03:00:54;;;;;;;24.47;12.63;;;;;;;;;;5220395;28;20041;-70
2022/12/13 03:03:33;;;;;;;21.47;12.37;;;;;;;;;;5133340;28;20085;-72
2022/12/13 03:06:31;;;;;;;20.77;11.82;;;;;;;;;;5219316;28;20033;-71
2022/12/13 03:09:06;;;;;;;20.02;11.85;;;;;;;;;;5220097;28;20030;-71
2022/12/13 03:14:56;;;;;;;;;;;;;;;;;;5211469;28;20042;-71
2022/12/13 03:17:30;;;;;;;19.80;11.30;;;;;;;;;;5219093;28;20000;-71
2022/12/13 03:20:02;;;;;;;20.43;12.40;;;;;;;;;;5219035;28;20311;-71
2022/12/13 03:22:35;;;;;;;25.57;13.47;;;;;;;;;;5220116;28;20014;-71
2022/12/13 03:25:06;;;;;;;20.00;11.60;;;;;;;;;;5220015;28;20014;-71
2022/12/13 03:27:37;;;;;;;19.57;12.97;;;;;;;;;;5219244;28;20018;-72
2022/12/13 03:30:08;;;;;;;21.17;12.83;;;;;;;;;;5219841;28;20040;-71
2022/12/13 03:32:40;;;;;;;21.37;12.47;;;;;;;;;;5218214;28;20034;-72
2022/12/13 03:35:11;;;;;;;22.00;12.70;;;;;;;;;;5219991;28;20473;-71
2022/12/13 03:37:42;;;;;;;23.37;13.03;;;;;;;;;;5219109;28;20053;-71
2022/12/13 03:40:13;;;;;;;23.40;13.83;;;;;;;;;;5219177;28;20076;-72
2022/12/13 03:42:45;;;;;;;23.13;12.60;;;;;;;;;;5219125;28;20030;-71
2022/12/13 03:45:17;;;;;;;22.97;11.63;;;;;;;;;;5219667;28;20025;-72
2022/12/13 03:47:48;;;;;;;22.27;12.80;;;;;;;;;;5218395;28;20017;-71
2022/12/13 03:50:20;;;;;;;19.00;11.87;;;;;;;;;;5219803;28;20573;-71
2022/12/13 03:52:57;;;;;;;20.97;12.10;;;;;;;;;;5219295;28;20428;-72
2022/12/13 03:55:28;;;;;;;20.47;12.13;;;;;;;;;;5218809;28;20037;-72
2022/12/13 03:57:59;;;;;;;20.97;11.97;;;;;;;;;;5219574;28;20030;-71
2022/12/13 04:00:30;;;;;;;21.87;11.60;;;;;;;;;;5219413;28;20041;-71
2022/12/13 04:03:02;;;;;;;22.63;12.57;;;;;;;;;;5218816;28;20121;-71
2022/12/13 04:05:33;;;;;;;24.50;12.53;;;;;;;;;;5219500;28;20018;-71
2022/12/13 04:08:05;;;;;;;21.17;12.63;;;;;;;;;;5218551;28;20037;-71
2022/12/13 04:10:36;;;;;;;20.67;12.07;;;;;;;;;;5219638;28;20059;-71
2022/12/13 04:15:59;;;;;;;21.73;11.57;;;;;;;;;;5218511;28;20042;-71
2022/12/13 04:18:30;;;;;;;20.83;12.03;;;;;;;;;;5219188;28;20022;-71
2022/12/13 04:21:01;;;;;;;18.65;12.13;;;;;;;;;;5219190;28;20022;-71
2022/12/13 04:23:32;;;;;;;20.70;12.20;;;;;;;;;;5218632;28;20025;-70
2022/12/13 04:26:03;;;;;;;19.67;12.60;;;;;;;;;;5219289;28;20065;-70
2022/12/13 04:28:34;;;;;;;24.23;12.57;;;;;;;;;;5222142;28;20026;-70
2022/12/13 04:31:06;;;;;;;23.23;13.20;;;;;;;;;;5222419;28;20374;-71
2022/12/13 04:33:37;;;;;;;24.17;13.50;;;;;;;;;;5223244;28;20018;-70
2022/12/13 04:36:08;;;;;;;18.10;11.40;;;;;;;;;;5222218;28;20022;-70
2022/12/13 04:38:39;;;;;;;22.03;12.13;;;;;;;;;;5222491;28;20089;-71
2022/12/13 04:41:15;;;;;;;22.33;12.37;;;;;;;;;;5223420;28;20496;-72
2022/12/13 04:43:51;;;;;;;22.37;12.13;;;;;;;;;;5222054;28;20111;-71
2022/12/13 04:46:22;;;;;;;22.77;12.60;;;;;;;;;;5223083;28;20351;-72
2022/12/13 04:48:54;;;;;;;20.47;12.37;;;;;;;;;;5222669;28;20029;-71
2022/12/13 04:51:25;;;;;;;19.90;12.23;;;;;;;;;;5222176;28;20014;-70
2022/12/13 04:53:56;;;;;;;21.33;12.33;;;;;;;;;;5222524;28;20034;-70
2022/12/13 04:56:27;;;;;;;25.43;13.17;;;;;;;;;;5222993;28;20036;-70
2022/12/13 04:58:58;;;;;;;20.40;12.47;;;;;;;;;;5222035;28;20036;-70
2022/12/13 05:01:30;;;;;;;22.57;13.43;;;;;;;;;;5222728;28;20128;-70
2022/12/13 05:04:02;;;;;;;25.77;13.50;;;;;;;;;;5222225;28;20029;-71
2022/12/13 05:06:33;;;;;;;26.73;15.40;;;;;;;;;;5222281;28;20042;-70
2022/12/13 05:09:04;;;;;;;22.60;13.63;;;;;;;;;;5222605;28;20018;-71
2022/12/13 05:11:35;;;;;;;23.33;12.80;;;;;;;;;;5221708;28;20092;-71
2022/12/13 05:14:06;;;;;;;22.97;13.67;;;;;;;;;;5222335;28;20175;-70
2022/12/13 05:16:38;;;;;;;22.43;12.43;;;;;;;;;;5222630;28;20022;-70
2022/12/13 05:19:09;;;;;;;22.37;13.43;;;;;;;;;;5222046;28;20396;-71
2022/12/13 05:21:40;;;;;;;20.83;12.17;;;;;;;;;;5222100;28;20022;-71
2022/12/13 05:24:11;;;;;;;22.43;13.87;;;;;;;;;;5222694;28;20037;-71
2022/12/13 05:26:42;;;;;;;19.83;12.33;;;;;;;;;;5221048;28;20072;-70
2022/12/13 05:29:13;;;;;;;22.10;13.77;;;;;;;;;;5222369;28;20029;-70
2022/12/13 05:31:45;;;;;;;24.10;13.23;;;;;;;;;;5221874;28;20549;-70
2022/12/13 05:34:16;;;;;;;21.87;12.17;;;;;;;;;;5221467;28;20033;-70
2022/12/13 05:36:47;;;;;;;23.85;13.82;;;;;;;;;;5221513;28;20041;-70
2022/12/13 05:39:18;;;;;;;26.23;14.07;;;;;;;;;;5220372;28;20050;-70
2022/12/13 05:41:50;;;;;;;22.03;12.93;;;;;;;;;;5221492;28;20385;-70
2022/12/13 05:44:21;;;;;;;21.73;12.57;;;;;;;;;;5222053;28;20022;-72
2022/12/13 05:46:52;;;;;;;22.20;12.77;;;;;;;;;;5221127;28;20100;-71
2022/12/13 05:49:23;;;;;;;20.07;12.03;;;;;;;;;;5221844;28;20030;-71
2022/12/13 05:51:54;;;;;;;22.33;13.83;;;;;;;;;;5221721;28;20084;-71
2022/12/13 05:54:25;;;;;;;21.43;13.23;;;;;;;;;;5220684;28;20465;-71
2022/12/13 05:56:57;;;;;;;21.93;12.90;;;;;;;;;;5221669;28;20021;-71
2022/12/13 05:59:31;;;;;;;26.20;13.97;;;;;;;;;;5221422;28;20029;-71
2022/12/13 06:02:03;;;;;;;24.97;14.90;;;;;;;;;;5220571;28;20541;-71
2022/12/13 06:04:34;;;;;;;21.83;13.17;;;;;;;;;;5221367;28;20094;-71
2022/12/13 06:07:05;;;;;;;25.77;14.13;;;;;;;;;;5221204;28;20025;-71
2022/12/13 06:09:36;;;;;;;21.37;13.13;;;;;;;;;;5220676;28;20018;-72
2022/12/13 06:12:08;;;;;;;23.23;13.93;;;;;;;;;;5221361;28;20028;-71
2022/12/13 06:14:40;;;;;;;22.03;13.17;;;;;;;;;;5220186;28;20409;-72
2022/12/13 06:17:11;;;;;;;23.00;13.37;;;;;;;;;;5221519;28;20104;-71
2022/12/13 06:19:42;;;;;;;25.57;13.47;;;;;;;;;;5221054;28;20021;-71
2022/12/13 06:22:13;;;;;;;21.07;12.60;;;;;;;;;;5220723;28;20044;-71
2022/12/13 06:24:44;;;;;;;21.30;12.60;;;;;;;;;;5221156;28;20105;-71
2022/12/13 06:27:15;;;;;;;21.07;13.00;;;;;;;;;;5221599;28;20049;-72
2022/12/13 06:29:48;;;;;;;25.10;13.20;;;;;;;;;;5219814;28;20025;-70
2022/12/13 06:32:19;;;;;;;23.90;12.93;;;;;;;;;;5221305;28;20076;-70
2022/12/13 06:34:51;;;;;;;25.10;13.27;;;;;;;;;;5220669;28;20062;-70
2022/12/13 06:37:22;;;;;;;23.50;13.63;;;;;;;;;;5219883;28;20054;-71
2022/12/13 06:39:53;;;;;;;27.07;14.47;;;;;;;;;;5220795;28;20025;-71
2022/12/13 06:42:24;;;;;;;24.90;13.90;;;;;;;;;;5220534;28;20022;-70
2022/12/13 06:44:55;;;;;;;24.57;13.40;;;;;;;;;;5220026;28;20022;-70
2022/12/13 06:47:27;;;;;;;23.57;14.30;;;;;;;;;;5220616;28;20041;-71
2022/12/13 06:49:58;;;;;;;25.90;14.07;;;;;;;;;;5219708;28;20032;-71
2022/12/13 06:52:29;;;;;;;22.40;13.90;;;;;;;;;;5220433;28;20030;-71
2022/12/13 06:55:01;;;;;;;27.67;14.30;;;;;;;;;;5220338;28;20037;-71
2022/12/13 06:57:32;;;;;;;22.03;13.57;;;;;;;;;;5219589;28;20013;-71
2022/12/13 07:00:04;;;;;;;26.37;14.77;;;;;;;;;;5220446;28;20508;-71
2022/12/13 07:02:36;;;;;;;28.90;15.30;;;;;;;;;;5220121;28;20022;-71
2022/12/13 07:05:08;;;;;;;26.77;15.10;;;;;;;;;;5219507;28;20022;-71
2022/12/13 07:07:39;;;;;;;22.50;13.67;;;;;;;;;;5220011;28;20030;-71
2022/12/13 07:10:11;;;;;;;25.13;15.20;;;;;;;;;;5220404;28;20030;-70
2022/12/13 07:12:42;;;;;;;27.33;17.10;;;;;;;;;;5219036;28;20029;-71
2022/12/13 07:15:13;;;;;;;26.83;15.63;;;;;;;;;;5220225;28;20428;-71
2022/12/13 07:17:47;;;;;;;26.60;15.17;;;;;;;;;;5218812;28;20029;-71
2022/12/13 07:20:19;;;;;;;25.87;15.33;;;;;;;;;;5220136;28;20018;-71
2022/12/13 07:22:55;;;;;;;28.53;15.13;;;;;;;;;;5219785;28;20535;-71
2022/12/13 07:25:26;;;;;;;28.77;15.67;;;;;;;;;;5219055;28;20021;-71
2022/12/13 07:27:58;;;;;;;29.77;17.23;;;;;;;;;;5219601;28;20018;-71
2022/12/13 07:30:37;;;;;;;32.57;17.47;;;;;;;;;;5219754;28;20422;-71
2022/12/13 07:33:08;;;;;;;22.97;12.53;;;;;;;;;;5218756;28;20041;-71
2022/12/13 07:35:39;;;;;;;29.30;18.00;;;;;;;;;;5219282;28;21375;-71
2022/12/13 07:38:11;;;;;;;30.07;18.13;;;;;;;;;;5219450;28;20053;-71
2022/12/13 07:40:42;;;;;;;28.47;16.80;;;;;;;;;;5218363;28;20030;-71
2022/12/13 07:43:14;;;;;;;31.60;15.93;;;;;;;;;;5219927;28;20087;-71
2022/12/13 07:45:45;;;;;;;30.17;17.00;;;;;;;;;;5219204;28;20496;-71
2022/12/13 07:48:17;;;;;;;28.70;16.80;;;;;;;;;;5219453;28;20045;-71
2022/12/13 07:50:48;;;;;;;34.13;18.07;;;;;;;;;;5219056;28;20017;-71
2022/12/13 07:53:20;;;;;;;31.83;18.00;;;;;;;;;;5218953;28;20033;-71
2022/12/13 07:55:51;;;;;;;31.33;18.63;;;;;;;;;;5219597;28;20076;-71
2022/12/13 07:58:22;;;;;;;30.90;17.30;;;;;;;;;;5219392;28;20049;-71
2022/12/13 08:00:57;;;;;;;29.47;18.10;;;;;;;;;;5218825;28;20064;-71
2022/12/13 08:03:28;;;;;;;30.00;17.10;;;;;;;;;;5224622;28;20033;-71
2022/12/13 08:06:04;;;;;;;30.53;17.63;;;;;;;;;;5226224;28;20022;-72
2022/12/13 08:08:36;;;;;;;31.30;17.93;;;;;;;;;;5225378;28;20030;-72
2022/12/13 08:11:08;;;;;;;33.10;18.20;;;;;;;;;;5226041;28;20519;-72
2022/12/13 08:13:40;;;;;;;32.93;19.47;;;;;;;;;;5225446;28;20025;-71
2022/12/13 08:16:13;;;;;;;34.50;19.47;;;;;;;;;;5225138;28;20473;-71
2022/12/13 08:18:46;;;;;;;29.23;17.37;;;;;;;;;;5225617;28;20532;-71
2022/12/13 08:21:17;;;;;;;29.67;17.47;;;;;;;;;;5226844;28;20037;-72
2022/12/13 08:23:48;;;;;;;32.07;19.17;;;;;;;;;;5226957;28;20442;-72
2022/12/13 08:26:21;;;;;;;29.50;17.80;;;;;;;;;;5225983;28;20042;-71
2022/12/13 08:28:52;;;;;;;31.10;18.13;;;;;;;;;;5225362;28;20470;-71
2022/12/13 08:31:24;;;;;;;33.67;19.07;;;;;;;;;;5225733;28;20022;-71
2022/12/13 08:33:55;;;;;;;32.17;18.30;;;;;;;;;;5225681;28;20040;-71
2022/12/13 08:36:27;;;;;;;32.97;18.37;;;;;;;;;;5224990;28;20109;-72
2022/12/13 08:39:01;;;;;;;31.47;18.43;;;;;;;;;;5225686;28;20100;-73
2022/12/13 08:41:32;;;;;;;33.70;18.27;;;;;;;;;;5226146;28;20028;-72
2022/12/13 08:44:03;;;;;;;32.50;19.70;;;;;;;;;;5225077;28;20014;-72
2022/12/13 08:46:35;;;;;;;32.10;19.53;;;;;;;;;;5225874;28;20026;-72
2022/12/13 08:49:06;;;;;;;31.80;18.63;;;;;;;;;;5225304;28;20020;-73
2022/12/13 08:51:37;;;;;;;30.57;18.47;;;;;;;;;;5222061;28;20029;-72
2022/12/13 08:54:08;;;;;;;29.80;18.43;;;;;;;;;;5225246;28;20065;-71
2022/12/13 08:56:39;;;;;;;29.57;17.97;;;;;;;;;;5224216;28;20030;-73
2022/12/13 08:59:11;;;;;;;30.20;17.20;;;;;;;;;;5225688;28;20088;-72
2022/12/13 09:01:42;;;;;;;30.17;18.13;;;;;;;;;;5224661;28;20022;-73
2022/12/13 09:04:14;;;;;;;32.03;18.97;;;;;;;;;;5225311;28;20022;-72
2022/12/13 09:06:45;;;;;;;33.17;18.93;;;;;;;;;;5224985;28;20037;-72
2022/12/13 09:09:16;;;;;;;31.93;19.50;;;;;;;;;;5225961;28;20494;-73
2022/12/13 09:11:47;;;;;;;29.43;18.03;;;;;;;;;;5224411;28;20025;-73
2022/12/13 09:14:18;;;;;;;32.00;18.50;;;;;;;;;;5223476;28;20030;-73
2022/12/13 09:16:50;;;;;;;30.60;18.53;;;;;;;;;;5239140;28;20014;-72
2022/12/13 09:19:21;;;;;;;27.83;17.17;;;;;;;;;;5241702;28;20120;-72
2022/12/13 09:21:52;;;;;;;31.47;18.30;;;;;;;;;;5242887;28;20039;-73
2022/12/13 09:24:24;;;;;;;30.47;17.80;;;;;;;;;;5242054;28;20119;-72
2022/12/13 09:26:56;;;;;;;29.57;18.57;;;;;;;;;;5242347;28;20032;-72
2022/12/13 09:29:27;;;;;;;31.63;18.80;;;;;;;;;;5242944;28;20021;-73
2022/12/13 09:31:59;;;;;;;32.63;19.20;;;;;;;;;;5241844;28;20025;-73
2022/12/13 09:34:31;;;;;;;32.83;19.20;;;;;;;;;;5242666;28;20033;-72
2022/12/13 09:37:02;;;;;;;30.30;18.43;;;;;;;;;;5242370;28;20496;-72
2022/12/13 09:39:34;;;;;;;29.77;17.73;;;;;;;;;;5241591;28;20076;-71
2022/12/13 09:42:09;;;;;;;31.87;18.73;;;;;;;;;;5241790;28;20117;-71
2022/12/13 09:44:44;;;;;;;34.50;18.80;;;;;;;;;;5241883;28;20040;-71
2022/12/13 09:47:21;;;;;;;33.23;18.87;;;;;;;;;;5241913;28;20017;-71
2022/12/13 09:49:52;;;;;;;34.43;21.37;;;;;;;;;;5242120;28;20021;-71
2022/12/13 09:52:24;;;;;;;31.53;18.80;;;;;;;;;;5241894;28;20379;-72
2022/12/13 09:54:56;;;;;;;31.23;19.33;;;;;;;;;;5242110;28;20105;-73
2022/12/13 09:57:29;;;;;;;28.73;18.07;;;;;;;;;;5242051;28;20070;-70
2022/12/13 10:00:05;;;;;;;32.83;19.73;;;;;;;;;;5240904;28;20017;-69
2022/12/13 10:02:44;;;;;;;32.90;20.47;;;;;;;;;;5241809;28;20025;-71
2022/12/13 10:05:21;;;;;;;36.88;20.25;;;;;;;;;;5242359;28;20026;-71
2022/12/13 10:07:54;;;;;;;35.37;20.57;;;;;;;;;;5240810;28;20056;-72
2022/12/13 10:10:25;;;;;;;31.30;18.83;;;;;;;;;;5241773;28;20489;-72
2022/12/13 10:13:02;;;;;;;31.67;18.97;;;;;;;;;;5241256;28;20022;-72
2022/12/13 10:15:35;;;;;;;33.07;20.07;;;;;;;;;;5240843;28;20515;-73
2022/12/13 10:18:09;;;;;;;34.97;20.77;;;;;;;;;;5241609;28;20021;-72
2022/12/13 10:20:40;;;;;;;32.70;20.67;;;;;;;;;;5240111;28;20473;-72
2022/12/13 10:23:11;;;;;;;32.67;20.57;;;;;;;;;;5241883;28;20096;-72
2022/12/13 10:25:48;;;;;;;33.73;18.57;;;;;;;;;;5240736;28;20076;-72
2022/12/13 10:28:30;;;;;;;35.90;20.77;;;;;;;;;;5240866;28;20100;-72
2022/12/13 10:31:01;;;;;;;32.90;18.90;;;;;;;;;;5241212;28;20021;-72
2022/12/13 10:33:35;;;;;;;36.10;20.50;;;;;;;;;;5241214;28;20020;-73
2022/12/13 10:36:26;;;;;;;30.70;19.57;;;;;;;;;;5240654;28;20423;-72
2022/12/13 10:38:58;;;;;;;34.13;19.10;;;;;;;;;;5239746;28;20045;-72
2022/12/13 10:41:31;;;;;;;33.77;19.97;;;;;;;;;;5241161;28;20021;-73
2022/12/13 10:44:05;;;;;;;34.30;20.77;;;;;;;;;;5240701;28;20024;-73
2022/12/13 10:46:41;;;;;;;31.77;18.83;;;;;;;;;;5241067;28;20493;-71
2022/12/13 10:49:21;;;;;;;33.50;19.57;;;;;;;;;;5240628;28;20024;-73
2022/12/13 10:51:53;;;;;;;32.60;18.80;;;;;;;;;;5240558;28;20052;-72
2022/12/13 10:54:27;;;;;;;33.53;20.37;;;;;;;;;;5238242;28;20056;-72
2022/12/13 10:56:59;;;;;;;31.23;19.33;;;;;;;;;;5238303;28;20115;-71
2022/12/13 10:59:38;;;;;;;30.93;18.97;;;;;;;;;;5238629;28;20022;-72
2022/12/13 11:02:28;;;;;;;30.73;18.27;;;;;;;;;;5238740;28;20039;-72
2022/12/13 11:05:15;;;;;;;33.17;19.33;;;;;;;;;;5238093;28;20424;-71
2022/12/13 11:07:46;;;;;;;33.63;19.20;;;;;;;;;;5239095;28;20037;-71
2022/12/13 11:10:25;;;;;;;27.05;17.30;;;;;;;;;;5240251;28;20025;-72
2022/12/13 11:13:01;;;;;;;32.15;18.42;;;;;;;;;;5240073;28;20358;-72
2022/12/13 11:15:34;;;;;;;30.17;18.80;;;;;;;;;;5222587;28;20025;-72
2022/12/13 11:18:08;;;;;;;29.77;18.57;;;;;;;;;;5239638;28;20037;-71
2022/12/13 11:20:47;;;;;;;30.03;17.87;;;;;;;;;;5239950;28;20469;-71
2022/12/13 11:23:22;;;;;;;29.75;18.50;;;;;;;;;;5240644;28;20026;-71
2022/12/13 11:25:55;;;;;;;28.03;17.67;;;;;;;;;;5239588;28;20018;-72
2022/12/13 11:28:29;;;;;;;29.60;18.53;;;;;;;;;;5239869;28;20028;-71
2022/12/13 11:31:09;;;;;;;27.80;16.63;;;;;;;;;;5238875;28;20030;-71
2022/12/13 11:33:56;;;;;;;28.87;16.70;;;;;;;;;;5239537;28;20025;-72
2022/12/13 11:36:37;;;;;;;29.10;17.17;;;;;;;;;;5239775;28;20421;-72
2022/12/13 11:39:11;;;;;;;31.07;17.43;;;;;;;;;;5239732;28;20098;-71
2022/12/13 11:41:54;;;;;;;25.73;16.17;;;;;;;;;;5240959;28;20022;-72
2022/12/13 11:44:28;;;;;;;26.70;16.70;;;;;;;;;;5219276;28;20053;-72
2022/12/13 11:46:59;;;;;;;26.60;16.57;;;;;;;;;;5217321;28;20358;-72
2022/12/13 11:49:36;;;;;;;27.77;17.07;;;;;;;;;;5217751;28;20029;-73
2022/12/13 11:52:10;;;;;;;26.77;15.93;;;;;;;;;;5217800;28;20033;-72
2022/12/13 11:54:55;;;;;;;26.57;15.43;;;;;;;;;;5217595;28;20041;-72
2022/12/13 11:57:38;;;;;;;25.63;16.23;;;;;;;;;;5218123;28;20018;-71
2022/12/13 12:00:16;;;;;;;25.30;15.97;;;;;;;;;;5217744;28;20022;-71
2022/12/13 12:02:52;;;;;;;26.97;15.53;;;;;;;;;;5217585;28;20457;-71
2022/12/13 12:05:31;;;;;;;23.20;15.20;;;;;;;;;;5218333;28;20430;-72
2022/12/13 12:08:11;;;;;;;24.33;15.55;;;;;;;;;;5221562;28;20022;-70
2022/12/13 12:10:43;;;;;;;26.57;15.63;;;;;;;;;;5218059;28;20022;-71
2022/12/13 12:13:20;;;;;;;25.83;15.37;;;;;;;;;;5217579;28;20022;-70
2022/12/13 12:16:08;;;;;;;24.60;14.60;;;;;;;;;;5217827;28;20026;-71
2022/12/13 12:18:39;;;;;;;25.98;15.70;;;;;;;;;;5218286;28;20050;-71
2022/12/13 12:21:13;;;;;;;29.33;16.97;;;;;;;;;;5217809;28;20096;-70
2022/12/13 12:23:50;;;;;;;25.23;15.53;;;;;;;;;;5217735;28;20026;-71
2022/12/13 12:26:28;;;;;;;24.33;15.23;;;;;;;;;;5218530;28;20018;-71
2022/12/13 12:29:17;;;;;;;24.07;15.13;;;;;;;;;;5215191;28;20029;-71
2022/12/13 12:32:03;;;;;;;24.98;14.85;;;;;;;;;;5217785;28;20025;-71
2022/12/13 12:34:34;;;;;;;22.03;14.20;;;;;;;;;;5217097;28;20410;-71
2022/12/13 12:37:24;;;;;;;24.05;14.13;;;;;;;;;;5217951;28;20045;-72
2022/12/13 12:40:10;;;;;;;22.37;14.80;;;;;;;;;;5215374;28;20030;-71
2022/12/13 12:42:42;;;;;;;21.57;14.07;;;;;;;;;;5213880;28;20025;-71
2022/12/13 12:45:31;;;;;;;21.77;13.07;;;;;;;;;;5215125;28;20033;-71
2022/12/13 12:48:19;;;;;;;21.95;13.85;;;;;;;;;;5217592;28;20335;-71
2022/12/13 12:51:09;;;;;;;20.95;13.93;;;;;;;;;;5220923;28;20022;-71
2022/12/13 12:53:51;;;;;;;21.57;14.27;;;;;;;;;;5219992;28;20069;-71
2022/12/13 12:56:41;;;;;;;22.63;14.13;;;;;;;;;;5220691;28;20021;-71
2022/12/13 12:59:28;;;;;;;22.90;13.17;;;;;;;;;;5221823;28;20026;-71
2022/12/13 13:02:03;;;;;;;20.93;13.63;;;;;;;;;;5221365;28;20030;-71
2022/12/13 13:04:41;;;;;;;21.90;13.40;;;;;;;;;;5220101;28;20030;-71
2022/12/13 13:07:18;;;;;;;25.00;14.53;;;;;;;;;;5221769;28;20053;-71
2022/12/13 13:09:50;;;;;;;23.93;15.77;;;;;;;;;;5220350;28;20149;-71
2022/12/13 13:12:23;;;;;;;24.07;15.73;;;;;;;;;;5220953;28;20014;-71
2022/12/13 13:14:54;;;;;;;24.60;15.13;;;;;;;;;;5221011;28;20026;-71
2022/12/13 13:17:25;;;;;;;22.10;14.17;;;;;;;;;;5220930;28;20014;-69
2022/12/13 13:20:15;;;;;;;20.86;13.62;;;;;;;;;;5221913;28;20026;-71
2022/12/13 13:22:48;;;;;;;26.97;15.50;;;;;;;;;;5221062;28;20072;-72
2022/12/13 13:25:21;;;;;;;22.97;13.90;;;;;;;;;;5221011;28;20416;-70
2022/12/13 13:27:59;;;;;;;25.07;14.47;;;;;;;;;;5221568;28;20022;-71
2022/12/13 13:30:31;;;;;;;22.67;14.10;;;;;;;;;;5220612;28;20022;-71
2022/12/13 13:33:02;;;;;;;18.87;12.80;;;;;;;;;;5221115;28;20363;-70
2022/12/13 13:35:35;;;;;;;20.67;12.87;;;;;;;;;;5220597;28;20481;-70
2022/12/13 13:38:15;;;;;;;21.53;13.17;;;;;;;;;;5220367;28;20042;-70
2022/12/13 13:40:46;;;;;;;21.83;13.97;;;;;;;;;;5221084;28;20104;-71
2022/12/13 13:43:28;;;;;;;22.17;12.87;;;;;;;;;;5221883;28;20112;-70
2022/12/13 13:46:09;;;;;;;19.57;12.77;;;;;;;;;;5220655;28;20370;-70
2022/12/13 13:48:45;;;;;;;23.40;13.03;;;;;;;;;;5221327;28;20026;-70
2022/12/13 13:51:20;;;;;;;23.00;12.30;;;;;;;;;;5221706;28;20026;-71
2022/12/13 13:53:54;;;;;;;20.73;13.00;;;;;;;;;;5220801;28;20080;-71
2022/12/13 13:56:33;;;;;;;24.50;13.43;;;;;;;;;;5221509;28;20164;-71
2022/12/13 13:59:22;;;;;;;22.90;14.03;;;;;;;;;;5220302;28;20022;-70
2022/12/13 14:02:02;;;;;;;24.83;14.43;;;;;;;;;;5220303;28;20348;-70
2022/12/13 14:04:52;;;;;;;20.63;13.43;;;;;;;;;;5221082;28;20136;-71
2022/12/13 14:07:24;;;;;;;21.27;13.17;;;;;;;;;;5220574;28;20430;-71
2022/12/13 14:10:11;;;;;;;23.70;13.70;;;;;;;;;;5221099;28;20029;-70
2022/12/13 14:13:14;;;;;;;19.60;12.63;;;;;;;;;;5219756;28;20018;-72
2022/12/13 14:15:57;;;;;;;26.97;14.57;;;;;;;;;;5166676;28;20048;-71
2022/12/13 14:18:47;;;;;;;21.80;12.77;;;;;;;;;;5220928;28;20025;-70
2022/12/13 14:21:19;;;;;;;17.97;11.83;;;;;;;;;;5216432;28;20077;-71
2022/12/13 14:24:02;;;;;;;20.57;13.87;;;;;;;;;;5219551;28;20091;-71
2022/12/13 14:26:39;;;;;;;24.90;12.83;;;;;;;;;;5220445;28;20049;-70
2022/12/13 14:29:16;;;;;;;19.27;12.70;;;;;;;;;;5219670;28;20014;-70
2022/12/13 14:31:48;;;;;;;22.40;14.27;;;;;;;;;;5220362;28;20022;-70
2022/12/13 14:34:28;;;;;;;23.40;13.93;;;;;;;;;;5201890;28;20030;-70
2022/12/13 14:37:01;;;;;;;23.33;13.33;;;;;;;;;;5220064;28;20061;-71
2022/12/13 14:39:33;;;;;;;21.87;13.77;;;;;;;;;;5220016;28;20029;-70
2022/12/13 14:42:19;;;;;;;17.97;11.80;;;;;;;;;;5219462;28;20409;-71
2022/12/13 14:44:51;;;;;;;19.10;12.57;;;;;;;;;;5219909;28;20026;-71
2022/12/13 14:47:22;;;;;;;21.17;13.30;;;;;;;;;;5220047;28;20055;-71
2022/12/13 14:49:54;;;;;;;23.37;14.00;;;;;;;;;;5218937;28;20171;-71
2022/12/13 14:52:27;;;;;;;21.00;13.30;;;;;;;;;;5219857;28;20037;-71
2022/12/13 14:54:59;;;;;;;18.97;13.27;;;;;;;;;;5219019;28;20069;-70
2022/12/13 14:57:32;;;;;;;20.73;13.67;;;;;;;;;;5220006;28;20021;-70
2022/12/13 15:00:23;;;;;;;20.93;12.87;;;;;;;;;;5219755;28;20100;-69
2022/12/13 15:02:55;;;;;;;24.03;13.87;;;;;;;;;;5219003;28;20018;-70
2022/12/13 15:05:29;;;;;;;23.67;14.47;;;;;;;;;;5219753;28;20014;-71